Time;durP1;ratioP1;P1;durP2;ratioP2;P2;SDS_P1;SDS_P2;PMS_P1;PMS_P2;Temp;Humidity;BMP_temperature;BMP_pressure;BME280_temperature;BME280_humidity;BME280_pressure;Samples;Min_cycle;Max_cycle;Signal;HPM_P1;HPM_P2
2022/01/21 00:02:15;;;;;;;8.95;2.42;;;;;;;;;;5040442;28;20095;-69
2022/01/21 00:05:00;;;;;;;11.45;1.80;;;;;;;;;;2213152;28;10023975;-69
2022/01/21 00:07:28;;;;;;;9.32;2.20;;;;;;;;;;3656850;28;10001338;-69
2022/01/21 00:09:57;;;;;;;3.13;1.65;;;;;;;;;;5039049;28;20572;-69
2022/01/21 00:12:27;;;;;;;5.50;2.22;;;;;;;;;;5036224;28;20040;-69
2022/01/21 00:14:56;;;;;;;5.03;1.52;;;;;;;;;;5037533;28;20150;-69
2022/01/21 00:17:25;;;;;;;7.25;2.20;;;;;;;;;;5034926;28;20484;-69
2022/01/21 00:30:06;;;;;;;13.07;3.13;;;;;;;;;;5046024;28;20036;-69
2022/01/21 00:31:00;;;;;;;3.40;2.00;;;;;;;;;;5043973;28;20049;-69
2022/01/21 00:33:30;;;;;;;6.38;2.17;;;;;;;;;;5040857;28;20096;-69
2022/01/21 00:35:59;;;;;;;4.25;2.00;;;;;;;;;;5045547;28;20053;-69
2022/01/21 00:38:30;;;;;;;12.30;2.67;;;;;;;;;;5051085;28;21077;-69
2022/01/21 00:41:02;;;;;;;3.72;1.95;;;;;;;;;;5030693;28;20396;-69
2022/01/21 00:43:44;;;;;;;5.15;1.65;;;;;;;;;;5044373;28;20041;-69
2022/01/21 00:46:12;;;;;;;6.13;2.17;;;;;;;;;;5049346;28;20459;-69
2022/01/21 00:48:42;;;;;;;9.27;2.65;;;;;;;;;;5041254;28;20053;-69
2022/01/21 00:51:11;;;;;;;8.52;2.45;;;;;;;;;;5041455;28;20143;-69
2022/01/21 00:53:39;;;;;;;8.73;2.67;;;;;;;;;;5043427;28;20052;-69
2022/01/21 00:56:10;;;;;;;5.80;2.17;;;;;;;;;;5050496;28;20346;-69
2022/01/21 00:58:39;;;;;;;6.13;2.50;;;;;;;;;;5049786;28;20056;-68
2022/01/21 01:01:10;;;;;;;7.65;2.22;;;;;;;;;;5046616;28;20080;-69
2022/01/21 01:03:38;;;;;;;9.05;3.15;;;;;;;;;;5048740;28;20076;-69
2022/01/21 01:06:11;;;;;;;5.60;2.78;;;;;;;;;;5053285;28;20435;-69
2022/01/21 01:08:39;;;;;;;8.32;2.80;;;;;;;;;;5040356;28;20608;-69
2022/01/21 01:11:29;;;;;;;8.90;2.30;;;;;;;;;;5053825;28;20440;-69
2022/01/21 01:22:19;;;;;;;6.50;2.10;;;;;;;;;;5048287;28;20041;-68
2022/01/21 01:27:38;;;;;;;4.95;2.88;;;;;;;;;;5040970;28;20144;-69
2022/01/21 01:30:07;;;;;;;6.63;1.90;;;;;;;;;;5033826;28;20073;-69
2022/01/21 01:32:36;;;;;;;8.32;3.20;;;;;;;;;;5038483;28;20583;-69
2022/01/21 01:35:05;;;;;;;11.38;2.85;;;;;;;;;;5051397;28;20059;-68
2022/01/21 01:38:04;;;;;;;6.53;2.33;;;;;;;;;;5047414;28;20059;-69
2022/01/21 01:40:38;;;;;;;6.20;2.00;;;;;;;;;;5027655;28;20555;-69
2022/01/21 01:51:34;;;;;;;6.10;2.17;;;;;;;;;;5040752;28;20481;-68
2022/01/21 01:54:06;;;;;;;3.22;1.73;;;;;;;;;;5038079;28;20048;-69
2022/01/21 01:56:36;;;;;;;4.50;2.20;;;;;;;;;;5044952;28;20587;-69
2022/01/21 01:59:04;;;;;;;13.52;3.00;;;;;;;;;;5053705;28;20567;-69
2022/01/21 02:01:33;;;;;;;10.18;3.20;;;;;;;;;;5047023;28;20550;-69
2022/01/21 02:04:04;;;;;;;8.20;3.10;;;;;;;;;;3676303;28;10023672;-69
2022/01/21 02:06:33;;;;;;;4.70;2.13;;;;;;;;;;1740382;28;10002058;-69
2022/01/21 02:09:01;;;;;;;4.32;2.17;;;;;;;;;;5038578;28;20068;-68
2022/01/21 02:11:31;;;;;;;7.28;2.85;;;;;;;;;;5036880;28;20057;-68
2022/01/21 02:14:01;;;;;;;9.13;2.65;;;;;;;;;;5038275;28;20067;-68
2022/01/21 02:16:40;;;;;;;8.20;2.70;;;;;;;;;;5038250;28;20045;-68
2022/01/21 02:21:55;;;;;;;4.75;2.45;;;;;;;;;;5038175;28;20552;-68
2022/01/21 02:24:31;;;;;;;8.63;2.80;;;;;;;;;;5045062;28;20072;-69
2022/01/21 02:27:01;;;;;;;5.35;2.03;;;;;;;;;;5038446;28;20073;-69
2022/01/21 02:29:32;;;;;;;13.50;2.80;;;;;;;;;;5041854;28;20495;-69
2022/01/21 02:32:01;;;;;;;8.10;2.63;;;;;;;;;;5029798;28;20053;-69
2022/01/21 02:34:31;;;;;;;7.50;3.08;;;;;;;;;;5042197;28;20135;-69
2022/01/21 02:37:01;;;;;;;6.70;2.60;;;;;;;;;;5039678;28;20500;-69
2022/01/21 02:39:29;;;;;;;8.45;2.42;;;;;;;;;;5047362;28;20052;-69
2022/01/21 02:41:58;;;;;;;5.30;2.10;;;;;;;;;;5032235;28;20460;-69
2022/01/21 02:44:26;;;;;;;5.53;2.17;;;;;;;;;;5043236;28;20076;-69
2022/01/21 02:46:57;;;;;;;7.75;2.35;;;;;;;;;;5048511;28;20037;-68
2022/01/21 02:49:26;;;;;;;5.97;2.33;;;;;;;;;;5049508;28;20057;-69
2022/01/21 02:51:56;;;;;;;6.50;2.17;;;;;;;;;;5055775;28;20045;-68
2022/01/21 02:54:25;;;;;;;7.57;2.67;;;;;;;;;;5041768;28;20059;-68
2022/01/21 02:56:54;;;;;;;9.60;2.65;;;;;;;;;;5040234;28;20132;-69
2022/01/21 02:59:22;;;;;;;6.70;2.40;;;;;;;;;;5046307;28;20083;-69
2022/01/21 03:01:51;;;;;;;9.68;2.78;;;;;;;;;;5056605;28;20461;-69
2022/01/21 03:04:27;;;;;;;8.13;1.95;;;;;;;;;;5038204;28;20059;-69
2022/01/21 03:06:55;;;;;;;8.55;2.25;;;;;;;;;;5037640;28;20143;-69
2022/01/21 03:09:23;;;;;;;8.30;2.00;;;;;;;;;;5036545;28;20048;-69
2022/01/21 03:11:53;;;;;;;6.72;2.47;;;;;;;;;;5049550;28;20181;-68
2022/01/21 03:14:21;;;;;;;6.07;2.50;;;;;;;;;;5037896;28;20041;-69
2022/01/21 03:16:49;;;;;;;15.85;2.50;;;;;;;;;;5046993;28;20059;-68
2022/01/21 03:19:18;;;;;;;6.65;1.88;;;;;;;;;;5043714;28;20139;-68
2022/01/21 03:21:46;;;;;;;5.22;2.30;;;;;;;;;;5046127;28;20132;-69
2022/01/21 03:24:14;;;;;;;6.90;1.77;;;;;;;;;;5041839;28;20148;-68
2022/01/21 03:26:43;;;;;;;9.35;2.33;;;;;;;;;;5040280;28;20105;-69
2022/01/21 03:29:12;;;;;;;8.88;2.50;;;;;;;;;;5037911;28;20140;-69
2022/01/21 03:31:41;;;;;;;12.52;2.88;;;;;;;;;;5037108;28;20076;-69
2022/01/21 03:34:09;;;;;;;7.05;2.33;;;;;;;;;;5039200;28;20063;-68
2022/01/21 03:36:40;;;;;;;9.68;2.38;;;;;;;;;;5049374;28;20135;-69
2022/01/21 03:39:08;;;;;;;5.65;1.90;;;;;;;;;;5038600;28;20132;-69
2022/01/21 03:41:36;;;;;;;4.85;2.20;;;;;;;;;;5050096;28;20128;-69
2022/01/21 03:44:05;;;;;;;8.15;2.40;;;;;;;;;;5050251;28;20056;-69
2022/01/21 03:46:35;;;;;;;4.50;2.35;;;;;;;;;;5047373;28;20591;-68
2022/01/21 03:49:05;;;;;;;5.07;2.40;;;;;;;;;;5035864;28;20148;-69
2022/01/21 03:51:33;;;;;;;8.82;2.10;;;;;;;;;;5043055;28;20132;-68
2022/01/21 03:54:01;;;;;;;9.05;2.25;;;;;;;;;;5045361;28;20390;-68
2022/01/21 03:56:30;;;;;;;6.15;2.28;;;;;;;;;;5043824;28;20119;-68
2022/01/21 03:58:58;;;;;;;9.48;2.85;;;;;;;;;;5049653;28;20064;-68
2022/01/21 04:01:28;;;;;;;9.63;2.20;;;;;;;;;;5047494;28;20148;-68
2022/01/21 04:03:58;;;;;;;3.75;1.90;;;;;;;;;;5001435;28;20044;-69
2022/01/21 04:06:43;;;;;;;4.18;1.68;;;;;;;;;;869279;28;10002536;-68
2022/01/21 04:09:13;;;;;;;7.32;2.35;;;;;;;;;;5043992;28;20648;-68
2022/01/21 04:11:41;;;;;;;7.38;2.55;;;;;;;;;;5046955;28;20500;-68
2022/01/21 04:14:09;;;;;;;4.35;1.95;;;;;;;;;;5044159;28;20131;-68
2022/01/21 04:16:37;;;;;;;6.88;2.33;;;;;;;;;;5044983;28;20443;-68
2022/01/21 04:19:07;;;;;;;8.32;2.15;;;;;;;;;;5044917;28;20143;-68
2022/01/21 04:21:35;;;;;;;4.75;1.58;;;;;;;;;;5046281;28;20139;-68
2022/01/21 04:24:04;;;;;;;11.50;2.38;;;;;;;;;;5046795;28;20084;-68
2022/01/21 04:26:32;;;;;;;7.63;2.15;;;;;;;;;;5042590;28;20532;-68
2022/01/21 04:29:00;;;;;;;6.05;1.88;;;;;;;;;;5045349;28;20567;-68
2022/01/21 04:31:29;;;;;;;7.47;2.20;;;;;;;;;;5043044;28;20079;-68
2022/01/21 04:33:57;;;;;;;6.15;2.05;;;;;;;;;;5040916;28;20258;-68
2022/01/21 04:36:27;;;;;;;6.57;2.60;;;;;;;;;;5051245;28;20049;-68
2022/01/21 04:38:58;;;;;;;5.60;2.53;;;;;;;;;;5046349;28;20053;-68
2022/01/21 04:41:42;;;;;;;5.78;2.67;;;;;;;;;;5046730;28;20144;-68
2022/01/21 04:47:18;;;;;;;4.70;1.70;;;;;;;;;;5040282;28;20074;-68
2022/01/21 04:49:47;;;;;;;3.63;2.20;;;;;;;;;;5041478;28;20075;-68
2022/01/21 04:52:16;;;;;;;5.43;1.98;;;;;;;;;;5049852;28;20155;-68
2022/01/21 04:54:45;;;;;;;7.43;2.42;;;;;;;;;;5041233;28;20050;-68
2022/01/21 04:57:13;;;;;;;8.40;2.22;;;;;;;;;;5036590;28;20136;-68
2022/01/21 04:59:42;;;;;;;7.68;2.70;;;;;;;;;;5033066;28;20072;-68
2022/01/21 05:02:10;;;;;;;5.40;2.50;;;;;;;;;;5043537;28;20053;-68
2022/01/21 05:04:39;;;;;;;12.10;3.03;;;;;;;;;;5051273;28;20041;-68
2022/01/21 05:07:10;;;;;;;12.82;2.80;;;;;;;;;;5046448;28;20049;-68
2022/01/21 05:09:39;;;;;;;6.03;2.35;;;;;;;;;;5052070;28;20145;-68
2022/01/21 05:12:10;;;;;;;8.70;3.08;;;;;;;;;;5046887;28;20534;-68
2022/01/21 05:14:49;;;;;;;9.88;2.67;;;;;;;;;;5045274;28;20606;-68
2022/01/21 05:17:17;;;;;;;5.38;2.45;;;;;;;;;;5048093;28;20187;-68
2022/01/21 05:19:46;;;;;;;8.75;2.65;;;;;;;;;;5051707;28;20127;-68
2022/01/21 05:22:14;;;;;;;6.88;2.72;;;;;;;;;;5050903;28;20144;-68
2022/01/21 05:24:44;;;;;;;5.03;2.30;;;;;;;;;;5046203;28;20161;-68
2022/01/21 05:27:13;;;;;;;11.25;2.17;;;;;;;;;;5048154;28;20108;-68
2022/01/21 05:29:41;;;;;;;6.38;2.60;;;;;;;;;;5045245;28;20124;-68
2022/01/21 05:32:10;;;;;;;6.72;2.72;;;;;;;;;;5043727;28;20145;-68
2022/01/21 05:34:38;;;;;;;9.95;2.90;;;;;;;;;;5044422;28;20045;-68
2022/01/21 05:37:08;;;;;;;5.25;2.53;;;;;;;;;;5045694;28;20128;-69
2022/01/21 05:39:37;;;;;;;3.90;1.70;;;;;;;;;;5046727;28;20044;-68
2022/01/21 05:42:07;;;;;;;3.40;1.70;;;;;;;;;;5049504;28;20041;-68
2022/01/21 05:47:22;;;;;;;3.88;1.08;;;;;;;;;;5047482;28;20059;-68
2022/01/21 05:49:54;;;;;;;6.93;1.38;;;;;;;;;;5052589;28;20219;-68
2022/01/21 05:52:30;;;;;;;2.88;1.17;;;;;;;;;;5053888;28;20068;-68
2022/01/21 05:54:59;;;;;;;2.10;1.40;;;;;;;;;;5050138;28;20127;-68
2022/01/21 05:57:30;;;;;;;3.72;1.05;;;;;;;;;;5051229;28;20071;-68
2022/01/21 05:59:58;;;;;;;3.88;1.20;;;;;;;;;;5050391;28;20048;-68
2022/01/21 06:02:27;;;;;;;2.13;1.05;;;;;;;;;;5041005;28;20290;-68
2022/01/21 06:05:15;;;;;;;3.08;0.88;;;;;;;;;;1965809;28;10022784;-69
2022/01/21 06:07:44;;;;;;;3.35;1.20;;;;;;;;;;4000957;28;10001504;-68
2022/01/21 06:10:13;;;;;;;2.70;1.10;;;;;;;;;;5039237;28;20099;-68
2022/01/21 06:12:43;;;;;;;4.00;1.20;;;;;;;;;;5043912;28;20076;-68
2022/01/21 06:15:11;;;;;;;2.53;1.00;;;;;;;;;;5033161;28;20091;-68
2022/01/21 06:17:39;;;;;;;2.90;1.00;;;;;;;;;;5045244;28;20151;-68
2022/01/21 06:20:08;;;;;;;4.78;1.40;;;;;;;;;;5044096;28;20153;-68
2022/01/21 06:22:37;;;;;;;1.38;0.85;;;;;;;;;;5040915;28;20080;-68
2022/01/21 06:25:05;;;;;;;3.78;0.98;;;;;;;;;;5046172;28;20145;-68
2022/01/21 06:27:36;;;;;;;5.35;1.38;;;;;;;;;;5040906;28;20505;-68
2022/01/21 06:30:07;;;;;;;9.18;1.85;;;;;;;;;;5041587;28;20084;-67
2022/01/21 06:32:35;;;;;;;6.25;1.60;;;;;;;;;;5056732;28;20052;-67
2022/01/21 06:35:03;;;;;;;1.88;0.93;;;;;;;;;;5050421;28;20119;-68
2022/01/21 06:37:32;;;;;;;6.43;1.17;;;;;;;;;;5050074;28;20037;-68
2022/01/21 06:40:00;;;;;;;4.75;1.35;;;;;;;;;;5052217;28;20563;-68
2022/01/21 06:42:30;;;;;;;5.20;1.70;;;;;;;;;;5038989;28;20135;-67
2022/01/21 06:45:00;;;;;;;7.65;1.63;;;;;;;;;;5050262;28;20395;-68
2022/01/21 06:47:30;;;;;;;4.45;1.13;;;;;;;;;;5055168;28;20045;-68
2022/01/21 06:49:59;;;;;;;7.32;1.92;;;;;;;;;;5050130;28;20367;-68
2022/01/21 06:52:28;;;;;;;9.40;1.55;;;;;;;;;;5052569;28;20052;-68
2022/01/21 06:54:57;;;;;;;3.10;1.45;;;;;;;;;;5038267;28;20058;-68
2022/01/21 06:57:25;;;;;;;6.40;1.48;;;;;;;;;;5042009;28;20128;-68
2022/01/21 06:59:54;;;;;;;6.95;1.40;;;;;;;;;;5038971;28;20568;-68
2022/01/21 07:02:22;;;;;;;4.32;1.27;;;;;;;;;;5040246;28;20076;-68
2022/01/21 07:04:52;;;;;;;7.95;1.42;;;;;;;;;;5032408;28;20160;-68
2022/01/21 07:07:22;;;;;;;9.57;1.33;;;;;;;;;;5035966;28;20046;-68
2022/01/21 07:09:50;;;;;;;3.13;1.23;;;;;;;;;;5043865;28;20080;-68
2022/01/21 07:12:18;;;;;;;4.95;1.45;;;;;;;;;;5038166;28;20436;-68
2022/01/21 07:14:47;;;;;;;5.40;1.50;;;;;;;;;;5039786;28;20044;-68
2022/01/21 07:17:15;;;;;;;2.40;1.27;;;;;;;;;;5036679;28;20076;-68
2022/01/21 07:19:43;;;;;;;5.70;1.52;;;;;;;;;;5029644;28;20132;-68
2022/01/21 07:22:13;;;;;;;5.38;1.40;;;;;;;;;;5044235;28;20131;-68
2022/01/21 07:24:42;;;;;;;8.63;2.05;;;;;;;;;;5039691;28;20053;-68
2022/01/21 07:27:10;;;;;;;7.40;1.40;;;;;;;;;;5047997;28;20132;-68
2022/01/21 07:29:38;;;;;;;3.63;1.88;;;;;;;;;;5029467;28;20164;-68
2022/01/21 07:32:07;;;;;;;7.07;1.27;;;;;;;;;;5037791;28;20081;-68
2022/01/21 07:34:36;;;;;;;8.38;1.77;;;;;;;;;;5042364;28;20431;-68
2022/01/21 07:37:10;;;;;;;5.40;2.17;;;;;;;;;;5034866;28;20053;-68
2022/01/21 07:39:55;;;;;;;7.28;1.50;;;;;;;;;;5037131;28;20049;-68
2022/01/21 07:42:25;;;;;;;2.92;1.58;;;;;;;;;;5037781;28;20124;-68
2022/01/21 07:44:53;;;;;;;6.40;1.90;;;;;;;;;;5046548;28;20107;-68
2022/01/21 07:47:22;;;;;;;1.80;1.30;;;;;;;;;;5040820;28;20119;-68
2022/01/21 07:49:51;;;;;;;2.47;1.15;;;;;;;;;;5042486;28;20196;-68
2022/01/21 07:52:20;;;;;;;7.65;2.35;;;;;;;;;;5039676;28;20094;-68
2022/01/21 07:54:48;;;;;;;9.88;1.83;;;;;;;;;;5042344;28;20212;-68
2022/01/21 07:57:19;;;;;;;5.60;1.48;;;;;;;;;;5047634;28;20049;-68
2022/01/21 07:59:48;;;;;;;3.30;1.77;;;;;;;;;;5032409;28;20072;-68
2022/01/21 08:02:17;;;;;;;4.38;1.63;;;;;;;;;;5037327;28;20408;-68
2022/01/21 08:04:47;;;;;;;6.68;2.10;;;;;;;;;;5037950;28;20088;-68
2022/01/21 08:07:16;;;;;;;9.63;1.90;;;;;;;;;;5036073;28;20049;-68
2022/01/21 08:09:44;;;;;;;4.05;1.92;;;;;;;;;;5042322;28;20091;-68
2022/01/21 08:12:15;;;;;;;11.13;2.42;;;;;;;;;;5031230;28;20485;-68
2022/01/21 08:14:45;;;;;;;7.03;1.70;;;;;;;;;;5036385;28;20473;-68
2022/01/21 08:17:14;;;;;;;3.35;1.60;;;;;;;;;;5043587;28;20127;-68
2022/01/21 08:19:43;;;;;;;3.85;1.85;;;;;;;;;;5034606;28;20100;-68
2022/01/21 08:22:12;;;;;;;5.38;2.50;;;;;;;;;;5038128;28;20059;-68
2022/01/21 08:24:41;;;;;;;9.38;3.17;;;;;;;;;;5030614;28;20044;-68
2022/01/21 08:27:10;;;;;;;12.57;2.25;;;;;;;;;;5030463;28;20151;-68
2022/01/21 08:29:39;;;;;;;8.05;2.65;;;;;;;;;;5034132;28;20057;-68
2022/01/21 08:32:09;;;;;;;8.85;2.65;;;;;;;;;;5041545;28;20548;-68
2022/01/21 08:34:38;;;;;;;9.65;3.03;;;;;;;;;;5039323;28;20072;-68
2022/01/21 08:37:07;;;;;;;5.40;2.33;;;;;;;;;;5041849;28;20045;-68
2022/01/21 08:39:36;;;;;;;10.75;3.22;;;;;;;;;;5041318;28;20045;-68
2022/01/21 08:42:06;;;;;;;8.45;2.42;;;;;;;;;;5043352;28;20049;-68
2022/01/21 08:44:35;;;;;;;12.20;3.08;;;;;;;;;;5037938;28;20171;-68
2022/01/21 08:47:04;;;;;;;7.68;2.92;;;;;;;;;;5044734;28;20055;-69
2022/01/21 08:49:43;;;;;;;12.07;2.72;;;;;;;;;;5032259;28;20041;-66
2022/01/21 08:52:19;;;;;;;10.18;2.92;;;;;;;;;;5041275;28;20048;-66
2022/01/21 08:54:48;;;;;;;8.52;2.92;;;;;;;;;;5042273;28;20136;-67
2022/01/21 08:57:18;;;;;;;8.52;2.35;;;;;;;;;;5039655;28;20422;-67
2022/01/21 08:59:49;;;;;;;12.70;3.30;;;;;;;;;;5045272;28;20057;-67
2022/01/21 09:02:18;;;;;;;7.60;2.85;;;;;;;;;;5044911;28;20049;-67
2022/01/21 09:04:49;;;;;;;5.60;2.35;;;;;;;;;;5039109;28;20041;-67
2022/01/21 09:07:20;;;;;;;8.32;3.13;;;;;;;;;;5035628;28;20049;-66
2022/01/21 09:09:49;;;;;;;6.90;2.85;;;;;;;;;;5044196;28;20061;-66
2022/01/21 09:12:18;;;;;;;9.52;2.95;;;;;;;;;;5047821;28;20048;-67
2022/01/21 09:14:47;;;;;;;7.35;2.38;;;;;;;;;;5039520;28;20176;-67
2022/01/21 09:17:16;;;;;;;7.82;2.65;;;;;;;;;;5025773;28;20112;-67
2022/01/21 09:19:45;;;;;;;10.85;3.30;;;;;;;;;;5032644;28;20049;-67
2022/01/21 09:22:17;;;;;;;8.93;3.28;;;;;;;;;;4634587;28;10001150;-68
2022/01/21 09:24:46;;;;;;;8.30;3.25;;;;;;;;;;693564;28;10002139;-66
2022/01/21 09:27:15;;;;;;;5.50;2.63;;;;;;;;;;5054493;28;20127;-67
2022/01/21 09:29:43;;;;;;;12.75;3.58;;;;;;;;;;5063138;28;20044;-67
2022/01/21 09:32:12;;;;;;;6.68;2.78;;;;;;;;;;5052646;28;20053;-67
2022/01/21 09:34:41;;;;;;;16.98;3.30;;;;;;;;;;5030408;28;20053;-67
2022/01/21 09:37:10;;;;;;;8.30;2.80;;;;;;;;;;5048198;28;20052;-67
2022/01/21 09:39:40;;;;;;;10.75;2.60;;;;;;;;;;5062634;28;20053;-67
2022/01/21 09:42:10;;;;;;;10.27;2.65;;;;;;;;;;5055304;28;20045;-67
2022/01/21 09:44:39;;;;;;;10.20;2.85;;;;;;;;;;5051600;28;20489;-67
2022/01/21 09:47:11;;;;;;;5.15;2.42;;;;;;;;;;5049853;28;20071;-68
2022/01/21 09:49:41;;;;;;;10.32;2.60;;;;;;;;;;5048607;28;20048;-67
2022/01/21 09:52:11;;;;;;;12.27;2.60;;;;;;;;;;5050972;28;20041;-67
2022/01/21 09:54:47;;;;;;;11.32;2.65;;;;;;;;;;5038787;28;20504;-67
2022/01/21 09:57:21;;;;;;;10.90;2.85;;;;;;;;;;5056661;28;20109;-67
2022/01/21 09:59:51;;;;;;;6.18;2.28;;;;;;;;;;5050278;28;20085;-67
2022/01/21 10:02:21;;;;;;;13.13;2.63;;;;;;;;;;5053960;28;20127;-67
2022/01/21 10:04:52;;;;;;;7.32;2.58;;;;;;;;;;5042866;28;20049;-68
2022/01/21 10:07:22;;;;;;;11.52;2.70;;;;;;;;;;5047631;28;20422;-67
2022/01/21 10:09:54;;;;;;;3.22;1.55;;;;;;;;;;5043909;28;20053;-67
2022/01/21 10:12:24;;;;;;;5.72;1.95;;;;;;;;;;5046095;28;20064;-67
2022/01/21 10:14:54;;;;;;;8.32;1.98;;;;;;;;;;5049142;28;20051;-67
2022/01/21 10:17:58;;;;;;;9.30;1.85;;;;;;;;;;5050381;28;20055;-67
2022/01/21 10:20:57;;;;;;;5.38;1.88;;;;;;;;;;5004178;28;20096;-67
2022/01/21 10:23:27;;;;;;;4.03;2.13;;;;;;;;;;5031538;28;20127;-68
2022/01/21 10:26:02;;;;;;;3.92;1.70;;;;;;;;;;5056489;28;20299;-68
2022/01/21 10:28:37;;;;;;;9.52;2.10;;;;;;;;;;5058990;28;20131;-68
2022/01/21 10:31:13;;;;;;;7.50;2.03;;;;;;;;;;5048165;28;20072;-68
2022/01/21 10:33:45;;;;;;;5.22;2.15;;;;;;;;;;5043505;28;20045;-68
2022/01/21 10:36:21;;;;;;;9.55;1.70;;;;;;;;;;5066950;28;20056;-69
2022/01/21 10:38:51;;;;;;;7.05;1.90;;;;;;;;;;5047433;28;20053;-69
2022/01/21 10:41:22;;;;;;;4.80;1.63;;;;;;;;;;5056398;28;20527;-70
2022/01/21 10:44:06;;;;;;;5.97;1.77;;;;;;;;;;5061539;28;20045;-69
2022/01/21 10:46:35;;;;;;;8.30;2.10;;;;;;;;;;5057113;28;20045;-70
2022/01/21 10:49:06;;;;;;;11.05;1.95;;;;;;;;;;5046770;28;20078;-70
2022/01/21 10:51:36;;;;;;;5.57;1.73;;;;;;;;;;5050332;28;20070;-70
2022/01/21 10:54:16;;;;;;;8.07;2.63;;;;;;;;;;5047696;28;20115;-71
2022/01/21 10:57:07;;;;;;;8.10;2.10;;;;;;;;;;5048587;28;20061;-70
2022/01/21 10:59:49;;;;;;;9.40;2.00;;;;;;;;;;5055249;28;20081;-70
2022/01/21 11:02:30;;;;;;;4.82;2.20;;;;;;;;;;5031547;28;20049;-70
2022/01/21 11:05:05;;;;;;;8.75;1.90;;;;;;;;;;1380819;28;10022896;-70
2022/01/21 11:07:47;;;;;;;8.20;2.72;;;;;;;;;;3981866;28;10001226;-70
2022/01/21 11:10:37;;;;;;;10.13;2.13;;;;;;;;;;5024277;28;20168;-70
2022/01/21 11:13:21;;;;;;;10.48;2.95;;;;;;;;;;5042336;28;20049;-70
2022/01/21 11:15:54;;;;;;;16.00;3.00;;;;;;;;;;5028901;28;20045;-70
2022/01/21 11:18:53;;;;;;;10.15;2.20;;;;;;;;;;5031561;28;20057;-70
2022/01/21 11:21:23;;;;;;;10.70;2.35;;;;;;;;;;5030366;28;20452;-70
2022/01/21 11:23:52;;;;;;;6.28;2.10;;;;;;;;;;5032037;28;20057;-69
2022/01/21 11:26:20;;;;;;;3.58;1.90;;;;;;;;;;5030670;28;20497;-70
2022/01/21 11:28:50;;;;;;;6.03;2.58;;;;;;;;;;5031413;28;20497;-69
2022/01/21 11:31:21;;;;;;;5.85;2.53;;;;;;;;;;5028642;28;20421;-69
2022/01/21 11:34:09;;;;;;;8.27;2.17;;;;;;;;;;5031590;28;20108;-70
2022/01/21 11:36:38;;;;;;;6.63;1.90;;;;;;;;;;5032263;28;20057;-69
2022/01/21 11:39:06;;;;;;;6.45;1.73;;;;;;;;;;5031169;28;20053;-70
2022/01/21 11:41:36;;;;;;;11.68;2.10;;;;;;;;;;5031249;28;20053;-70
2022/01/21 11:44:06;;;;;;;5.90;1.95;;;;;;;;;;5031674;28;20421;-69
2022/01/21 11:49:25;;;;;;;10.23;2.83;;;;;;;;;;5025486;28;20044;-69
2022/01/21 11:52:09;;;;;;;14.57;2.80;;;;;;;;;;5031119;28;20068;-69
2022/01/21 11:54:38;;;;;;;3.38;1.88;;;;;;;;;;5031564;28;20045;-70
2022/01/21 11:57:07;;;;;;;9.02;2.63;;;;;;;;;;5030530;28;20425;-70
2022/01/21 11:59:44;;;;;;;5.03;1.83;;;;;;;;;;5035298;28;20550;-69
2022/01/21 12:02:21;;;;;;;5.60;1.75;;;;;;;;;;5042781;28;20064;-69
2022/01/21 12:05:06;;;;;;;4.65;1.40;;;;;;;;;;2134255;28;10023738;-70
2022/01/21 12:07:48;;;;;;;6.05;1.67;;;;;;;;;;3629861;28;10001536;-69
2022/01/21 12:10:18;;;;;;;11.95;2.42;;;;;;;;;;5051380;28;20053;-70
2022/01/21 12:13:03;;;;;;;8.77;2.22;;;;;;;;;;5049494;28;20135;-69
2022/01/21 12:16:06;;;;;;;4.95;1.67;;;;;;;;;;5045293;28;20155;-69
2022/01/21 12:19:24;;;;;;;5.57;1.80;;;;;;;;;;5040235;28;20045;-69
2022/01/21 12:21:53;;;;;;;5.47;1.60;;;;;;;;;;5028365;28;20052;-70
2022/01/21 12:24:41;;;;;;;9.40;1.52;;;;;;;;;;5042108;28;20505;-70
2022/01/21 12:27:13;;;;;;;4.68;1.95;;;;;;;;;;5047970;28;20045;-70
2022/01/21 12:29:43;;;;;;;5.95;1.50;;;;;;;;;;5027063;28;20049;-70
2022/01/21 12:32:25;;;;;;;5.15;1.60;;;;;;;;;;5033755;28;20061;-69
2022/01/21 12:35:14;;;;;;;7.80;1.73;;;;;;;;;;5027517;28;20053;-70
2022/01/21 12:38:05;;;;;;;14.32;1.75;;;;;;;;;;5041309;28;20054;-69
2022/01/21 12:40:35;;;;;;;4.55;1.60;;;;;;;;;;5000400;28;20121;-69
2022/01/21 12:43:22;;;;;;;6.28;1.70;;;;;;;;;;5039628;28;20475;-69
2022/01/21 12:46:02;;;;;;;4.25;1.50;;;;;;;;;;5029589;28;20135;-69
2022/01/21 12:48:40;;;;;;;8.13;1.60;;;;;;;;;;5041741;28;20129;-70
2022/01/21 12:51:20;;;;;;;5.53;1.35;;;;;;;;;;5038613;28;20476;-69
2022/01/21 12:56:44;;;;;;;3.70;1.48;;;;;;;;;;5030618;28;20075;-69
2022/01/21 12:59:20;;;;;;;4.72;2.60;;;;;;;;;;5050838;28;20056;-70
2022/01/21 13:01:49;;;;;;;3.90;1.48;;;;;;;;;;5051206;28;20041;-69
2022/01/21 13:04:29;;;;;;;6.22;2.28;;;;;;;;;;5047399;28;20045;-69
2022/01/21 13:07:04;;;;;;;6.00;1.83;;;;;;;;;;5029553;28;20053;-70
2022/01/21 13:10:06;;;;;;;9.90;2.35;;;;;;;;;;5048119;28;20057;-68
2022/01/21 13:12:59;;;;;;;4.18;1.65;;;;;;;;;;4957789;28;20471;-69
2022/01/21 13:15:39;;;;;;;5.32;1.73;;;;;;;;;;4965708;28;20075;-69
2022/01/21 13:18:08;;;;;;;3.58;1.40;;;;;;;;;;5004182;28;20589;-70
2022/01/21 13:20:37;;;;;;;3.88;2.03;;;;;;;;;;5025594;28;20057;-70
2022/01/21 13:23:07;;;;;;;10.60;1.88;;;;;;;;;;5041047;28;20060;-69
2022/01/21 13:25:36;;;;;;;2.95;1.80;;;;;;;;;;5034952;28;20050;-70
2022/01/21 13:28:06;;;;;;;6.28;2.00;;;;;;;;;;5050994;28;20091;-70
2022/01/21 13:30:36;;;;;;;3.47;2.10;;;;;;;;;;5038181;28;20048;-69
2022/01/21 13:33:07;;;;;;;10.05;2.33;;;;;;;;;;5037321;28;20045;-69
2022/01/21 13:35:36;;;;;;;4.45;1.80;;;;;;;;;;5037791;28;20049;-70
2022/01/21 13:38:06;;;;;;;8.25;1.92;;;;;;;;;;5040517;28;20049;-69
2022/01/21 13:40:37;;;;;;;4.75;2.13;;;;;;;;;;5034072;28;20049;-69
2022/01/21 13:43:07;;;;;;;4.03;2.30;;;;;;;;;;5035237;28;20142;-69
2022/01/21 13:45:35;;;;;;;7.82;1.52;;;;;;;;;;5042812;28;20050;-69
2022/01/21 13:48:05;;;;;;;7.18;1.63;;;;;;;;;;5040996;28;20112;-70
2022/01/21 13:50:34;;;;;;;5.57;1.75;;;;;;;;;;5039931;28;20480;-69
2022/01/21 13:53:04;;;;;;;9.52;2.28;;;;;;;;;;5037161;28;20085;-69
2022/01/21 13:55:39;;;;;;;2.63;1.40;;;;;;;;;;5042282;28;20163;-69
2022/01/21 13:58:10;;;;;;;4.18;1.35;;;;;;;;;;5052634;28;20041;-69
2022/01/21 14:00:40;;;;;;;4.47;1.50;;;;;;;;;;5044133;28;20053;-69
2022/01/21 14:03:11;;;;;;;5.43;1.65;;;;;;;;;;5034430;28;20076;-69
2022/01/21 14:05:51;;;;;;;6.80;2.00;;;;;;;;;;435532;28;10023353;-69
2022/01/21 14:08:21;;;;;;;4.90;1.67;;;;;;;;;;5057142;28;20756;-70
2022/01/21 14:10:54;;;;;;;8.45;2.08;;;;;;;;;;5041532;28;20072;-70
2022/01/21 14:13:25;;;;;;;7.45;2.00;;;;;;;;;;5044867;28;20562;-69
2022/01/21 14:15:56;;;;;;;6.55;1.50;;;;;;;;;;5048759;28;20049;-69
2022/01/21 14:18:24;;;;;;;6.03;2.05;;;;;;;;;;5051449;28;20053;-69
2022/01/21 14:21:13;;;;;;;;;;;;;;;;;;;;;
2022/01/21 14:23:43;;;;;;;7.45;1.85;;;;;;;;;;5064706;28;20051;-69
2022/01/21 14:26:19;;;;;;;5.60;1.58;;;;;;;;;;5054392;28;20105;-70
2022/01/21 14:28:50;;;;;;;6.10;1.88;;;;;;;;;;5044628;28;20041;-69
2022/01/21 14:31:29;;;;;;;5.63;2.03;;;;;;;;;;5047400;28;20052;-69
2022/01/21 14:33:58;;;;;;;7.32;1.85;;;;;;;;;;5042025;28;20102;-69
2022/01/21 14:36:27;;;;;;;5.90;1.58;;;;;;;;;;5062970;28;20110;-69
2022/01/21 14:39:09;;;;;;;6.43;1.50;;;;;;;;;;5056370;28;20687;-69
2022/01/21 14:41:39;;;;;;;6.75;1.63;;;;;;;;;;5044330;28;20040;-69
2022/01/21 14:44:34;;;;;;;4.07;1.30;;;;;;;;;;5053827;28;20048;-69
2022/01/21 14:47:06;;;;;;;8.77;1.70;;;;;;;;;;5031425;28;20707;-69
2022/01/21 14:49:35;;;;;;;5.45;1.75;;;;;;;;;;5046202;28;20057;-69
2022/01/21 14:52:33;;;;;;;5.72;1.88;;;;;;;;;;5054990;28;20072;-69
2022/01/21 14:54:54;;;;;;;7.32;2.35;;;;;;;;;;5050724;28;20059;-69
2022/01/21 14:57:29;;;;;;;8.32;2.30;;;;;;;;;;5048753;28;20045;-69
2022/01/21 14:59:59;;;;;;;;;;;;;;;;;;5044441;28;20560;-69
2022/01/21 15:02:30;;;;;;;7.05;2.03;;;;;;;;;;5045950;28;20373;-68
2022/01/21 15:05:01;;;;;;;9.90;1.95;;;;;;;;;;5029539;28;20048;-68
2022/01/21 15:07:31;;;;;;;4.47;1.83;;;;;;;;;;5052526;28;20139;-69
2022/01/21 15:10:02;;;;;;;10.35;1.52;;;;;;;;;;5037431;28;20053;-69
2022/01/21 15:15:28;;;;;;;8.45;1.83;;;;;;;;;;5057803;28;20154;-69
2022/01/21 15:17:59;;;;;;;5.75;2.00;;;;;;;;;;5048928;28;20053;-69
2022/01/21 15:20:33;;;;;;;11.25;1.88;;;;;;;;;;5035723;28;20142;-69
2022/01/21 15:23:02;;;;;;;5.32;1.80;;;;;;;;;;5047226;28;20051;-69
2022/01/21 15:25:31;;;;;;;13.88;1.98;;;;;;;;;;5049673;28;20242;-70
2022/01/21 15:28:00;;;;;;;10.38;2.15;;;;;;;;;;5040504;28;20095;-70
2022/01/21 15:30:29;;;;;;;5.75;2.40;;;;;;;;;;5031260;28;20048;-70
2022/01/21 15:33:00;;;;;;;11.23;2.58;;;;;;;;;;5049050;28;20047;-70
2022/01/21 15:35:29;;;;;;;5.35;2.22;;;;;;;;;;5064407;28;20057;-70
2022/01/21 15:37:58;;;;;;;8.50;3.05;;;;;;;;;;5053783;28;20107;-70
2022/01/21 15:40:30;;;;;;;4.35;2.38;;;;;;;;;;5042823;28;20084;-69
2022/01/21 15:42:59;;;;;;;6.80;2.58;;;;;;;;;;5052260;28;20066;-70
2022/01/21 15:45:28;;;;;;;4.85;1.83;;;;;;;;;;5054638;28;20045;-70
2022/01/21 15:47:57;;;;;;;5.93;2.25;;;;;;;;;;5044904;28;20056;-70
2022/01/21 15:50:28;;;;;;;12.20;2.42;;;;;;;;;;5030675;28;20053;-69
2022/01/21 15:52:56;;;;;;;8.77;3.85;;;;;;;;;;5038015;28;20054;-69
2022/01/21 15:55:26;;;;;;;10.80;3.28;;;;;;;;;;5039678;28;20418;-69